Time;durP1;ratioP1;P1;durP2;ratioP2;P2;SDS_P1;SDS_P2;PMS_P1;PMS_P2;Temp;Humidity;BMP_temperature;BMP_pressure;BME280_temperature;BME280_humidity;BME280_pressure;Samples;Min_cycle;Max_cycle;Signal;HPM_P1;HPM_P2
2021/12/22 00:00:50;;;;;;;;;;;17.10;45.90;;;;;;5103967;27;43968;-73
2021/12/22 00:03:15;;;;;;;;;;;17.10;45.90;;;;;;5104393;27;42941;-74
2021/12/22 00:05:46;;;;;;;;;;;17.10;45.90;;;;;;5105695;27;42996;-79
2021/12/22 00:08:13;;;;;;;;;;;17.10;45.70;;;;;;5106323;27;42881;-78
2021/12/22 00:10:41;;;;;;;;;;;17.10;45.70;;;;;;5105997;27;42982;-73
2021/12/22 00:13:07;;;;;;;;;;;17.10;45.70;;;;;;5106189;27;42874;-73
2021/12/22 00:15:33;;;;;;;;;;;17.10;45.70;;;;;;5105163;27;43506;-77
2021/12/22 00:17:58;;;;;;;;;;;17.20;45.80;;;;;;5105245;27;42933;-76
2021/12/22 00:20:24;;;;;;;;;;;17.10;45.70;;;;;;5105756;27;42959;-73
2021/12/22 00:22:49;;;;;;;;;;;17.10;45.80;;;;;;5105938;27;43016;-73
2021/12/22 00:25:16;;;;;;;;;;;17.20;45.80;;;;;;5106236;27;43542;-78
2021/12/22 00:27:41;;;;;;;;;;;17.10;45.70;;;;;;5107213;27;42894;-72
2021/12/22 00:30:07;;;;;;;;;;;17.20;45.70;;;;;;5105165;27;43088;-79
2021/12/22 00:32:35;;;;;;;;;;;17.20;45.70;;;;;;5107567;27;43010;-78
2021/12/22 00:35:01;;;;;;;;;;;17.10;45.60;;;;;;5105962;27;42968;-73
2021/12/22 00:37:27;;;;;;;;;;;17.10;45.60;;;;;;5106000;27;42758;-73
2021/12/22 00:39:53;;;;;;;;;;;17.20;45.70;;;;;;5105346;27;43626;-73
2021/12/22 00:42:19;;;;;;;;;;;17.20;45.60;;;;;;5106227;27;42963;-73
2021/12/22 00:44:50;;;;;;;;;;;17.20;45.60;;;;;;5105431;27;42946;-78
2021/12/22 00:47:16;;;;;;;;;;;17.20;45.70;;;;;;5105606;27;42976;-77
2021/12/22 00:49:42;;;;;;;;;;;17.20;45.70;;;;;;5105153;27;42799;-79
2021/12/22 00:52:07;;;;;;;;;;;17.20;45.60;;;;;;5105002;27;42862;-73
2021/12/22 00:54:33;;;;;;;;;;;17.20;45.70;;;;;;5101539;27;43355;-74
2021/12/22 00:57:04;;;;;;;;;;;17.20;45.60;;;;;;5103082;27;43093;-79
2021/12/22 00:59:31;;;;;;;;;;;17.20;45.70;;;;;;5105851;27;42868;-74
2021/12/22 01:01:57;;;;;;;;;;;17.20;45.70;;;;;;5105413;27;42763;-80
2021/12/22 01:04:22;;;;;;;;;;;17.20;45.70;;;;;;5105197;27;42955;-73
2021/12/22 01:06:48;;;;;;;;;;;17.20;45.60;;;;;;5104053;27;43007;-76
2021/12/22 01:09:13;;;;;;;;;;;17.20;45.60;;;;;;5105444;27;42866;-76
2021/12/22 01:11:39;;;;;;;;;;;17.20;45.70;;;;;;5105691;27;42973;-74
2021/12/22 01:14:05;;;;;;;;;;;17.20;45.70;;;;;;5105381;27;43036;-77
2021/12/22 01:16:31;;;;;;;;;;;17.20;45.60;;;;;;5105065;27;42874;-76
2021/12/22 01:18:59;;;;;;;;;;;17.20;45.70;;;;;;5104762;27;43194;-77
2021/12/22 01:21:36;;;;;;;;;;;17.20;45.70;;;;;;5105032;27;42971;-79
2021/12/22 01:24:13;;;;;;;;;;;17.20;45.70;;;;;;5104932;27;43989;-74
2021/12/22 01:26:46;;;;;;;;;;;17.20;45.70;;;;;;5104739;27;42873;-78
2021/12/22 01:29:14;;;;;;;;;;;17.20;45.70;;;;;;5104457;27;43933;-73
2021/12/22 01:31:41;;;;;;;;;;;17.20;45.60;;;;;;5105113;27;42862;-78
2021/12/22 01:34:07;;;;;;;;;;;17.20;45.70;;;;;;5103431;27;44005;-73
2021/12/22 01:36:33;;;;;;;;;;;17.20;45.70;;;;;;5104616;27;42897;-78
2021/12/22 01:38:59;;;;;;;;;;;17.20;45.70;;;;;;5104244;27;43984;-78
2021/12/22 01:41:24;;;;;;;;;;;17.20;45.70;;;;;;5105191;27;42742;-78
2021/12/22 01:43:50;;;;;;;;;;;17.20;45.70;;;;;;5106436;27;42895;-78
2021/12/22 01:49:14;;;;;;;;;;;17.20;45.80;;;;;;5107777;27;43471;-73
2021/12/22 01:51:44;;;;;;;;;;;17.20;45.70;;;;;;5107428;27;43001;-76
2021/12/22 01:54:18;;;;;;;;;;;17.20;45.70;;;;;;5108283;27;42851;-77
2021/12/22 01:56:44;;;;;;;;;;;17.20;45.70;;;;;;5108577;27;42774;-77
2021/12/22 01:59:10;;;;;;;;;;;17.20;45.80;;;;;;5108199;27;42856;-74
2021/12/22 02:01:36;;;;;;;;;;;17.20;45.70;;;;;;5108083;27;42885;-75
2021/12/22 02:04:03;;;;;;;;;;;17.20;45.80;;;;;;5106353;27;44751;-73
2021/12/22 02:06:28;;;;;;;;;;;17.20;45.80;;;;;;5107511;27;43860;-77
2021/12/22 02:08:55;;;;;;;;;;;17.20;46.00;;;;;;5107784;27;42936;-74
2021/12/22 02:11:21;;;;;;;;;;;17.20;46.00;;;;;;5107743;27;42890;-78
2021/12/22 02:13:53;;;;;;;;;;;17.20;46.00;;;;;;5107757;27;43513;-78
2021/12/22 02:16:25;;;;;;;;;;;17.20;46.10;;;;;;5107374;27;42889;-78
2021/12/22 02:18:53;;;;;;;;;;;17.20;46.10;;;;;;5107354;27;43399;-78
2021/12/22 02:21:20;;;;;;;;;;;17.10;46.00;;;;;;5108077;27;42870;-74
2021/12/22 02:23:46;;;;;;;;;;;17.20;46.10;;;;;;5107807;27;43690;-78
2021/12/22 02:26:17;;;;;;;;;;;17.20;46.00;;;;;;5107704;27;42980;-74
2021/12/22 02:28:46;;;;;;;;;;;17.20;46.10;;;;;;5107599;27;43737;-79
2021/12/22 02:31:15;;;;;;;;;;;17.20;46.10;;;;;;5107505;27;42927;-73
2021/12/22 02:33:43;;;;;;;;;;;17.10;46.10;;;;;;5106943;27;43775;-73
2021/12/22 02:38:55;;;;;;;;;;;17.10;46.00;;;;;;5107167;27;43475;-73
2021/12/22 02:41:22;;;;;;;;;;;17.10;46.10;;;;;;5107298;27;42787;-79
2021/12/22 02:43:51;;;;;;;;;;;17.10;46.10;;;;;;5107217;27;42847;-74
2021/12/22 02:46:36;;;;;;;;;;;17.10;46.10;;;;;;5107276;27;42727;-73
2021/12/22 02:49:03;;;;;;;;;;;17.10;46.20;;;;;;5107395;27;42986;-73
2021/12/22 02:51:29;;;;;;;;;;;17.10;46.20;;;;;;5107349;27;42935;-73
2021/12/22 02:54:17;;;;;;;;;;;17.10;46.20;;;;;;5106865;27;43401;-79
2021/12/22 03:04:50;;;;;;;;;;;17.10;46.30;;;;;;5105997;27;43444;-74
2021/12/22 03:07:18;;;;;;;;;;;17.10;46.30;;;;;;5105130;27;43262;-73
2021/12/22 03:09:44;;;;;;;;;;;17.10;46.40;;;;;;5107027;27;43074;-77
2021/12/22 03:12:12;;;;;;;;;;;17.10;46.40;;;;;;5106961;27;43091;-74
2021/12/22 03:14:37;;;;;;;;;;;17.00;46.30;;;;;;5105564;27;44523;-80
2021/12/22 03:17:03;;;;;;;;;;;17.10;46.30;;;;;;5107050;27;43116;-75
2021/12/22 03:19:30;;;;;;;;;;;17.00;46.80;;;;;;5106656;27;42877;-74
2021/12/22 03:22:02;;;;;;;;;;;17.00;46.30;;;;;;5106707;27;43017;-80
2021/12/22 03:24:29;;;;;;;;;;;17.00;46.30;;;;;;5106916;27;44005;-77
2021/12/22 03:26:58;;;;;;;;;;;17.00;46.30;;;;;;5106853;27;43094;-74
2021/12/22 03:29:23;;;;;;;;;;;17.00;46.40;;;;;;5104793;27;44517;-80
2021/12/22 03:31:49;;;;;;;;;;;17.00;46.40;;;;;;5106494;27;42859;-80
2021/12/22 03:34:14;;;;;;;;;;;17.00;46.40;;;;;;5106692;27;43146;-78
2021/12/22 03:36:42;;;;;;;;;;;17.00;46.40;;;;;;5106619;27;42810;-79
2021/12/22 03:39:08;;;;;;;;;;;17.00;46.40;;;;;;5106351;27;43394;-78
2021/12/22 03:41:36;;;;;;;;;;;17.00;46.40;;;;;;5105948;27;42892;-78
2021/12/22 03:44:02;;;;;;;;;;;17.00;46.50;;;;;;5105774;27;43630;-78
2021/12/22 03:46:28;;;;;;;;;;;17.00;46.40;;;;;;5105890;27;42862;-73
2021/12/22 03:48:54;;;;;;;;;;;17.00;46.50;;;;;;5105591;27;42886;-74
2021/12/22 03:51:19;;;;;;;;;;;17.00;46.50;;;;;;5106533;27;43197;-73
2021/12/22 03:53:45;;;;;;;;;;;17.00;46.50;;;;;;5106153;27;43036;-77
2021/12/22 03:56:10;;;;;;;;;;;17.00;46.60;;;;;;5106012;27;42942;-79
2021/12/22 03:58:36;;;;;;;;;;;16.90;46.50;;;;;;5105823;27;43020;-73
2021/12/22 04:01:02;;;;;;;;;;;16.90;46.50;;;;;;5106022;27;42980;-73
2021/12/22 04:03:32;;;;;;;;;;;16.90;46.50;;;;;;5106892;27;43427;-74
2021/12/22 04:05:57;;;;;;;;;;;16.90;46.50;;;;;;5104092;27;42894;-80
2021/12/22 04:08:23;;;;;;;;;;;16.90;46.50;;;;;;5103781;27;44594;-73
2021/12/22 04:10:50;;;;;;;;;;;16.90;46.60;;;;;;5105705;27;42886;-73
2021/12/22 04:13:15;;;;;;;;;;;16.90;46.60;;;;;;5106136;27;42817;-74
2021/12/22 04:15:42;;;;;;;;;;;16.90;46.60;;;;;;5105890;27;43021;-75
2021/12/22 04:18:07;;;;;;;;;;;16.90;46.60;;;;;;5105486;27;43505;-73
2021/12/22 04:20:33;;;;;;;;;;;16.90;46.60;;;;;;5105776;27;42866;-79
2021/12/22 04:23:00;;;;;;;;;;;16.90;46.60;;;;;;5105635;27;42757;-77
2021/12/22 04:25:26;;;;;;;;;;;16.90;46.60;;;;;;5105848;27;42811;-74
2021/12/22 04:27:55;;;;;;;;;;;16.90;46.70;;;;;;5105725;27;43518;-77
2021/12/22 04:30:21;;;;;;;;;;;16.90;46.70;;;;;;5105794;27;42853;-78
2021/12/22 04:32:47;;;;;;;;;;;16.90;46.70;;;;;;5105472;27;43334;-79
2021/12/22 04:35:12;;;;;;;;;;;16.90;46.70;;;;;;5105910;27;42913;-73
2021/12/22 04:37:38;;;;;;;;;;;16.90;46.70;;;;;;5105202;27;43018;-73
2021/12/22 04:40:04;;;;;;;;;;;17.00;46.70;;;;;;5105461;27;42920;-75
2021/12/22 04:42:29;;;;;;;;;;;17.00;46.70;;;;;;5105482;27;42829;-77
2021/12/22 04:44:57;;;;;;;;;;;17.00;46.80;;;;;;5105525;27;42753;-73
2021/12/22 04:47:23;;;;;;;;;;;17.10;47.00;;;;;;5105400;27;42944;-73
2021/12/22 04:49:48;;;;;;;;;;;17.10;47.00;;;;;;5105567;27;43004;-73
2021/12/22 04:52:20;;;;;;;;;;;17.10;47.00;;;;;;5105396;27;42955;-75
2021/12/22 04:55:04;;;;;;;;;;;17.10;47.20;;;;;;5105574;27;43079;-73
2021/12/22 04:57:30;;;;;;;;;;;17.10;47.10;;;;;;5104705;27;42969;-73
2021/12/22 04:59:56;;;;;;;;;;;17.10;47.20;;;;;;5105323;27;43228;-73
2021/12/22 05:02:22;;;;;;;;;;;17.10;47.10;;;;;;5104697;27;43098;-75
2021/12/22 05:04:47;;;;;;;;;;;17.10;47.20;;;;;;5105527;27;43251;-73
2021/12/22 05:07:13;;;;;;;;;;;17.10;47.00;;;;;;5105050;27;43421;-79
2021/12/22 05:09:38;;;;;;;;;;;17.20;47.00;;;;;;5104911;27;42897;-77
2021/12/22 05:12:04;;;;;;;;;;;17.20;47.30;;;;;;5105309;27;42904;-78
2021/12/22 05:14:30;;;;;;;;;;;17.20;47.00;;;;;;5106969;27;43012;-72
2021/12/22 05:17:01;;;;;;;;;;;17.20;46.90;;;;;;5118468;27;43887;-73
2021/12/22 05:19:26;;;;;;;;;;;17.20;46.90;;;;;;5118580;27;43037;-73
2021/12/22 05:21:52;;;;;;;;;;;17.20;46.70;;;;;;5113008;27;43155;-74
2021/12/22 05:24:18;;;;;;;;;;;17.20;46.70;;;;;;5115091;27;43078;-75
2021/12/22 05:26:43;;;;;;;;;;;17.20;46.70;;;;;;5116007;27;43385;-74
2021/12/22 05:29:09;;;;;;;;;;;17.20;46.60;;;;;;5115712;27;42948;-76
2021/12/22 05:31:35;;;;;;;;;;;17.20;46.40;;;;;;5122635;27;43108;-74
2021/12/22 05:34:00;;;;;;;;;;;17.20;46.20;;;;;;5122418;27;43708;-71
2021/12/22 05:36:26;;;;;;;;;;;17.20;46.00;;;;;;5115296;27;42942;-72
2021/12/22 05:38:51;;;;;;;;;;;17.30;46.20;;;;;;5108272;27;42992;-74
2021/12/22 05:41:17;;;;;;;;;;;17.30;46.20;;;;;;5110371;27;43553;-73
2021/12/22 05:43:42;;;;;;;;;;;17.30;46.40;;;;;;5111815;27;42914;-72
2021/12/22 05:46:08;;;;;;;;;;;17.30;46.30;;;;;;5117684;27;43964;-74
2021/12/22 05:48:33;;;;;;;;;;;17.30;46.90;;;;;;5111190;27;42891;-79
2021/12/22 05:51:01;;;;;;;;;;;17.30;46.70;;;;;;5108596;27;43038;-71
2021/12/22 05:53:27;;;;;;;;;;;17.30;46.40;;;;;;5110776;27;43113;-74
2021/12/22 05:55:54;;;;;;;;;;;17.00;43.30;;;;;;5106821;27;44684;-80
2021/12/22 05:58:19;;;;;;;;;;;16.20;40.20;;;;;;5117788;27;42902;-72
2021/12/22 06:00:45;;;;;;;;;;;15.60;38.90;;;;;;5108228;27;43508;-79
2021/12/22 06:03:10;;;;;;;;;;;15.10;38.60;;;;;;5107572;27;42937;-81
2021/12/22 06:05:36;;;;;;;;;;;14.80;38.10;;;;;;5108030;27;43724;-75
2021/12/22 06:08:02;;;;;;;;;;;14.60;38.10;;;;;;5112348;27;42923;-78
2021/12/22 06:10:28;;;;;;;;;;;14.30;38.10;;;;;;5118645;27;44022;-72
2021/12/22 06:12:53;;;;;;;;;;;14.20;38.50;;;;;;5113923;27;42958;-72
2021/12/22 06:15:19;;;;;;;;;;;14.60;39.60;;;;;;5107437;27;43503;-74
2021/12/22 06:17:47;;;;;;;;;;;15.00;40.20;;;;;;5104918;27;42979;-80
2021/12/22 06:20:13;;;;;;;;;;;15.40;40.80;;;;;;5105640;27;42905;-78
2021/12/22 06:22:38;;;;;;;;;;;15.70;41.10;;;;;;5106060;27;43001;-74
2021/12/22 06:25:04;;;;;;;;;;;15.90;41.70;;;;;;5107314;27;42944;-73
2021/12/22 06:27:30;;;;;;;;;;;16.10;42.00;;;;;;5107835;27;43210;-85
2021/12/22 06:29:55;;;;;;;;;;;16.20;42.20;;;;;;5107076;27;44022;-73
2021/12/22 06:32:21;;;;;;;;;;;16.30;42.40;;;;;;5107724;27;43036;-88
2021/12/22 06:34:46;;;;;;;;;;;16.40;42.50;;;;;;5107805;27;43766;-72
2021/12/22 06:37:12;;;;;;;;;;;16.50;42.60;;;;;;5107600;27;43008;-73
2021/12/22 06:39:38;;;;;;;;;;;16.50;42.60;;;;;;5107038;27;44268;-72
2021/12/22 06:42:04;;;;;;;;;;;16.60;42.70;;;;;;5106966;27;43442;-72
2021/12/22 06:44:29;;;;;;;;;;;16.60;42.80;;;;;;5106769;27;42978;-77
2021/12/22 06:46:55;;;;;;;;;;;16.70;42.90;;;;;;5111647;27;42926;-94
2021/12/22 06:49:23;;;;;;;;;;;16.70;43.00;;;;;;5127070;27;43604;-84
2021/12/22 06:51:49;;;;;;;;;;;16.70;43.10;;;;;;5127906;27;43011;-71
2021/12/22 06:54:14;;;;;;;;;;;16.70;43.10;;;;;;5127446;27;43697;-71
2021/12/22 06:56:40;;;;;;;;;;;16.80;43.20;;;;;;5127242;27;42912;-76
2021/12/22 06:59:05;;;;;;;;;;;16.80;43.80;;;;;;5127636;27;43062;-72
2021/12/22 07:01:33;;;;;;;;;;;16.80;43.40;;;;;;5127479;27;42979;-72
2021/12/22 07:03:59;;;;;;;;;;;16.80;43.40;;;;;;5127026;27;44509;-71
2021/12/22 07:06:25;;;;;;;;;;;16.80;43.40;;;;;;5127392;27;42919;-72
2021/12/22 07:08:51;;;;;;;;;;;16.90;43.50;;;;;;5127482;27;43452;-74
2021/12/22 07:11:17;;;;;;;;;;;16.90;43.50;;;;;;5128032;27;42924;-72
2021/12/22 07:13:42;;;;;;;;;;;16.90;43.60;;;;;;5127779;27;42862;-74
2021/12/22 07:16:08;;;;;;;;;;;16.90;43.70;;;;;;5128023;27;43388;-78
2021/12/22 07:18:34;;;;;;;;;;;16.90;43.70;;;;;;5126977;27;42891;-73
2021/12/22 07:21:00;;;;;;;;;;;16.90;43.80;;;;;;5127301;27;43043;-76
2021/12/22 07:23:25;;;;;;;;;;;16.90;43.80;;;;;;5127807;27;43442;-72
2021/12/22 07:25:51;;;;;;;;;;;16.90;43.80;;;;;;5127937;27;42840;-72
2021/12/22 07:28:16;;;;;;;;;;;16.90;44.40;;;;;;5127166;27;43017;-72
2021/12/22 07:30:42;;;;;;;;;;;16.90;43.90;;;;;;5127243;27;43679;-72
2021/12/22 07:33:08;;;;;;;;;;;16.90;43.90;;;;;;5114148;27;42962;-81
2021/12/22 07:35:38;;;;;;;;;;;16.90;43.90;;;;;;5106777;27;42931;-72
2021/12/22 07:38:06;;;;;;;;;;;16.90;44.00;;;;;;5106830;27;43884;-72
2021/12/22 07:40:31;;;;;;;;;;;16.90;44.00;;;;;;5107434;27;42884;-73
2021/12/22 07:42:57;;;;;;;;;;;16.90;44.00;;;;;;5106726;27;43021;-74
2021/12/22 07:45:22;;;;;;;;;;;17.00;44.00;;;;;;5106362;27;43055;-72
2021/12/22 07:47:48;;;;;;;;;;;16.90;44.00;;;;;;5105793;27;42967;-73
2021/12/22 07:50:13;;;;;;;;;;;17.00;44.10;;;;;;5106110;27;43026;-72
2021/12/22 07:52:39;;;;;;;;;;;17.00;44.00;;;;;;5106281;27;42855;-72
2021/12/22 07:55:05;;;;;;;;;;;17.00;44.00;;;;;;5106349;27;42803;-91
2021/12/22 07:57:30;;;;;;;;;;;17.00;44.00;;;;;;5106732;27;43410;-72
2021/12/22 07:59:56;;;;;;;;;;;17.00;44.10;;;;;;5114993;27;42888;-71
2021/12/22 08:02:21;;;;;;;;;;;17.00;44.10;;;;;;5114583;27;43716;-77
2021/12/22 08:04:47;;;;;;;;;;;17.00;44.00;;;;;;5114004;27;42950;-71
2021/12/22 08:07:12;;;;;;;;;;;17.00;44.10;;;;;;5115028;27;42952;-71
2021/12/22 08:09:40;;;;;;;;;;;17.00;44.10;;;;;;5107444;27;59662;-71
2021/12/22 08:12:06;;;;;;;;;;;17.00;44.00;;;;;;5114834;27;43672;-81
2021/12/22 08:14:32;;;;;;;;;;;17.00;44.00;;;;;;5114725;27;43477;-69
2021/12/22 08:16:58;;;;;;;;;;;17.00;44.00;;;;;;5113277;27;43411;-72
2021/12/22 08:19:23;;;;;;;;;;;17.00;43.80;;;;;;5113314;27;43185;-70
2021/12/22 08:21:49;;;;;;;;;;;17.00;44.10;;;;;;5120848;27;43859;-74
2021/12/22 08:24:14;;;;;;;;;;;17.00;44.30;;;;;;5109635;27;42845;-73
2021/12/22 08:26:40;;;;;;;;;;;17.00;44.50;;;;;;5120654;27;43407;-72
2021/12/22 08:29:05;;;;;;;;;;;17.00;44.60;;;;;;5105188;27;43531;-72
2021/12/22 08:31:31;;;;;;;;;;;17.00;44.70;;;;;;5105579;27;42930;-71
2021/12/22 08:33:57;;;;;;;;;;;17.00;44.70;;;;;;5110562;27;42911;-72
2021/12/22 08:39:08;;;;;;;;;;;17.00;44.80;;;;;;5123052;27;42941;-72
2021/12/22 08:41:35;;;;;;;;;;;17.00;44.80;;;;;;5108603;27;44942;-71
2021/12/22 08:44:02;;;;;;;;;;;17.00;44.80;;;;;;5114584;27;42975;-71
2021/12/22 08:46:28;;;;;;;;;;;17.00;44.70;;;;;;5108651;27;43027;-71
2021/12/22 08:48:54;;;;;;;;;;;17.00;44.80;;;;;;5102854;27;42992;-71
2021/12/22 08:51:21;;;;;;;;;;;17.00;44.90;;;;;;5104779;27;43620;-72
2021/12/22 08:53:47;;;;;;;;;;;17.00;44.90;;;;;;5108652;27;43405;-71
2021/12/22 08:56:12;;;;;;;;;;;17.00;44.90;;;;;;5113764;27;42994;-71
2021/12/22 08:58:38;;;;;;;;;;;17.10;45.00;;;;;;5110309;27;43161;-71
2021/12/22 09:01:04;;;;;;;;;;;17.00;45.00;;;;;;5113368;27;43627;-71
2021/12/22 09:03:30;;;;;;;;;;;17.00;44.90;;;;;;5109860;27;43065;-71
2021/12/22 09:05:56;;;;;;;;;;;17.10;45.00;;;;;;5108285;27;43462;-71
2021/12/22 09:08:21;;;;;;;;;;;17.10;45.00;;;;;;5108636;27;43041;-71
2021/12/22 09:10:47;;;;;;;;;;;17.10;45.00;;;;;;5108167;27;42987;-71
2021/12/22 09:13:13;;;;;;;;;;;17.10;45.30;;;;;;5107879;27;43122;-71
2021/12/22 09:15:39;;;;;;;;;;;17.10;45.00;;;;;;5107822;27;42979;-71
2021/12/22 09:18:05;;;;;;;;;;;16.80;44.90;;;;;;5108604;27;42968;-71
2021/12/22 09:20:30;;;;;;;;;;;17.10;45.00;;;;;;5108065;27;43129;-71
2021/12/22 09:22:56;;;;;;;;;;;17.10;45.00;;;;;;5107111;27;43042;-72
2021/12/22 09:25:21;;;;;;;;;;;17.10;44.90;;;;;;5107567;27;42942;-74
2021/12/22 09:27:47;;;;;;;;;;;17.10;45.00;;;;;;5108016;27;42989;-70
2021/12/22 09:30:12;;;;;;;;;;;17.10;44.90;;;;;;5107543;27;43593;-71
2021/12/22 09:32:38;;;;;;;;;;;17.20;45.00;;;;;;5108094;27;42817;-70
2021/12/22 09:35:04;;;;;;;;;;;17.20;45.00;;;;;;5108374;27;42841;-71
2021/12/22 09:37:30;;;;;;;;;;;17.20;45.00;;;;;;5107171;27;42868;-70
2021/12/22 09:39:55;;;;;;;;;;;17.20;45.00;;;;;;5107840;27;43387;-70
2021/12/22 09:42:21;;;;;;;;;;;17.20;44.80;;;;;;5106202;27;42937;-71
2021/12/22 09:44:47;;;;;;;;;;;17.20;45.00;;;;;;5117696;27;43414;-70
2021/12/22 09:47:14;;;;;;;;;;;17.20;44.90;;;;;;5129257;27;42979;-71
2021/12/22 09:55:01;;;;;;;;;;;17.20;44.90;;;;;;5113342;27;43346;-71
2021/12/22 09:57:27;;;;;;;;;;;17.20;44.90;;;;;;5124034;27;42996;-70
2021/12/22 09:59:54;;;;;;;;;;;17.20;45.00;;;;;;5109087;27;43172;-72
2021/12/22 10:02:20;;;;;;;;;;;17.20;44.80;;;;;;5111322;27;42964;-70
2021/12/22 10:04:46;;;;;;;;;;;17.20;44.70;;;;;;5110430;27;43070;-70
2021/12/22 10:07:20;;;;;;;;;;;17.20;45.00;;;;;;5117779;27;43020;-70
2021/12/22 10:09:47;;;;;;;;;;;17.30;45.10;;;;;;5117461;27;43109;-79
2021/12/22 10:12:13;;;;;;;;;;;17.30;45.10;;;;;;5115797;27;43079;-71
2021/12/22 10:14:46;;;;;;;;;;;17.30;45.10;;;;;;5123118;27;42996;-72
2021/12/22 10:17:25;;;;;;;;;;;17.20;43.00;;;;;;5111939;27;43059;-77
2021/12/22 10:19:53;;;;;;;;;;;17.20;42.20;;;;;;5116103;27;43034;-79
2021/12/22 10:22:18;;;;;;;;;;;17.00;41.70;;;;;;5112727;27;43063;-73
2021/12/22 10:24:46;;;;;;;;;;;17.00;41.60;;;;;;5121381;27;43592;-71
2021/12/22 10:27:18;;;;;;;;;;;17.00;41.60;;;;;;5115799;27;42959;-71
2021/12/22 10:29:43;;;;;;;;;;;17.00;41.90;;;;;;5114569;27;42834;-78
2021/12/22 10:32:10;;;;;;;;;;;17.00;42.90;;;;;;5116113;27;43036;-72
2021/12/22 10:34:53;;;;;;;;;;;17.10;43.20;;;;;;5112022;27;43100;-72
2021/12/22 10:37:31;;;;;;;;;;;17.20;43.30;;;;;;5106246;27;43039;-73
2021/12/22 10:39:57;;;;;;;;;;;17.30;43.50;;;;;;5119650;27;43742;-73
2021/12/22 10:42:38;;;;;;;;;;;17.30;43.60;;;;;;5117043;27;42935;-72
2021/12/22 10:45:10;;;;;;;;;;;17.40;43.60;;;;;;5110636;27;43680;-72
2021/12/22 10:49:14;;;;;;;;;;;17.40;43.80;;;;;;5110572;27;42978;-74
2021/12/22 10:50:30;;;;;;;;;;;17.40;42.80;;;;;;5115232;27;43013;-73
2021/12/22 10:52:57;;;;;;;;;;;17.40;43.30;;;;;;5118189;27;43039;-72
2021/12/22 10:55:23;;;;;;;;;;;17.40;43.50;;;;;;5121710;27;42992;-71
2021/12/22 10:57:48;;;;;;;;;;;17.40;43.70;;;;;;5126495;27;43081;-72
2021/12/22 11:00:17;;;;;;;;;;;17.50;43.70;;;;;;5113785;27;43990;-71
2021/12/22 11:02:49;;;;;;;;;;;17.50;43.70;;;;;;5117700;27;42949;-72
2021/12/22 11:05:28;;;;;;;;;;;17.50;43.80;;;;;;5117555;27;42907;-72
2021/12/22 11:07:54;;;;;;;;;;;17.60;43.80;;;;;;5123696;27;43342;-72
2021/12/22 11:10:27;;;;;;;;;;;17.50;43.90;;;;;;5126054;27;42954;-71
2021/12/22 11:12:59;;;;;;;;;;;17.60;43.90;;;;;;5126248;27;42992;-71
2021/12/22 11:15:25;;;;;;;;;;;17.60;43.90;;;;;;5125476;27;42925;-71
2021/12/22 11:17:50;;;;;;;;;;;17.60;44.00;;;;;;5126865;27;42895;-71
2021/12/22 11:20:16;;;;;;;;;;;17.70;44.10;;;;;;5126514;27;43698;-72
2021/12/22 11:23:00;;;;;;;;;;;17.70;44.30;;;;;;5126682;27;43111;-71
2021/12/22 11:25:26;;;;;;;;;;;17.70;44.20;;;;;;5127366;27;42905;-75
2021/12/22 11:27:52;;;;;;;;;;;17.70;44.20;;;;;;5127035;27;43005;-72
2021/12/22 11:30:18;;;;;;;;;;;17.70;44.20;;;;;;5126528;27;42812;-73
2021/12/22 11:32:44;;;;;;;;;;;17.70;44.20;;;;;;5126187;27;43002;-76
2021/12/22 11:35:10;;;;;;;;;;;17.70;44.20;;;;;;5126696;27;43719;-72
2021/12/22 11:37:36;;;;;;;;;;;17.70;44.20;;;;;;5126682;27;42795;-73
2021/12/22 11:40:03;;;;;;;;;;;17.70;44.20;;;;;;5126718;27;43535;-70
2021/12/22 11:42:32;;;;;;;;;;;17.70;44.20;;;;;;5126573;27;42867;-70
2021/12/22 11:45:02;;;;;;;;;;;17.70;44.10;;;;;;5126457;27;43499;-70
2021/12/22 11:47:28;;;;;;;;;;;17.80;44.20;;;;;;5127390;27;42801;-71
2021/12/22 11:49:53;;;;;;;;;;;17.80;44.20;;;;;;5127165;27;43787;-70
2021/12/22 11:52:29;;;;;;;;;;;17.70;44.00;;;;;;5126398;27;43051;-70
2021/12/22 11:55:08;;;;;;;;;;;17.70;44.00;;;;;;5126514;27;43570;-70
2021/12/22 11:57:34;;;;;;;;;;;17.80;44.10;;;;;;5126130;27;42960;-70
2021/12/22 12:00:18;;;;;;;;;;;17.70;44.10;;;;;;5126128;27;42933;-70
2021/12/22 12:02:44;;;;;;;;;;;17.80;44.10;;;;;;5126251;27;43061;-70
2021/12/22 12:05:16;;;;;;;;;;;17.80;44.10;;;;;;5125809;27;42816;-70
2021/12/22 12:07:46;;;;;;;;;;;17.80;44.10;;;;;;5126812;27;42898;-70
2021/12/22 12:10:32;;;;;;;;;;;17.80;44.10;;;;;;5126419;27;44419;-70
2021/12/22 12:13:03;;;;;;;;;;;17.80;44.00;;;;;;5125691;27;42939;-70
2021/12/22 12:15:53;;;;;;;;;;;17.80;44.10;;;;;;5126277;27;43449;-70
2021/12/22 12:21:48;;;;;;;;;;;17.80;44.10;;;;;;5125772;27;43249;-70
2021/12/22 12:24:31;;;;;;;;;;;17.80;44.10;;;;;;5126211;27;42970;-71
2021/12/22 12:26:58;;;;;;;;;;;17.80;44.10;;;;;;5118423;27;43875;-70
2021/12/22 12:29:42;;;;;;;;;;;17.80;44.10;;;;;;5112936;27;43083;-71
2021/12/22 12:32:07;;;;;;;;;;;17.90;43.60;;;;;;5126055;27;43129;-71
2021/12/22 12:34:36;;;;;;;;;;;17.70;41.90;;;;;;5124755;27;43008;-71
2021/12/22 12:37:01;;;;;;;;;;;17.40;41.20;;;;;;5125232;27;42991;-71
2021/12/22 12:39:45;;;;;;;;;;;16.90;40.00;;;;;;5124669;27;42975;-71
2021/12/22 12:42:11;;;;;;;;;;;16.70;40.40;;;;;;5125630;27;43614;-71
2021/12/22 12:44:36;;;;;;;;;;;16.80;40.40;;;;;;5125540;27;43110;-71
2021/12/22 12:47:16;;;;;;;;;;;16.80;40.30;;;;;;5125992;27;42907;-72
2021/12/22 12:49:44;;;;;;;;;;;16.70;39.60;;;;;;5125508;27;42891;-71
2021/12/22 12:52:17;;;;;;;;;;;16.70;39.50;;;;;;5125426;27;42928;-71
2021/12/22 12:54:45;;;;;;;;;;;16.50;38.90;;;;;;5125817;27;42762;-72
2021/12/22 12:57:10;;;;;;;;;;;16.40;39.00;;;;;;5111610;27;43371;-70
2021/12/22 12:59:39;;;;;;;;;;;16.30;39.80;;;;;;5117132;27;43008;-74
2021/12/22 13:02:05;;;;;;;;;;;16.50;39.80;;;;;;5100730;27;43074;-70
2021/12/22 13:04:32;;;;;;;;;;;16.70;40.20;;;;;;5103700;27;42955;-70
2021/12/22 13:07:00;;;;;;;;;;;16.90;40.50;;;;;;5104021;27;42877;-72
2021/12/22 13:09:30;;;;;;;;;;;17.00;40.70;;;;;;5103789;27;43396;-74
2021/12/22 13:12:12;;;;;;;;;;;17.20;40.80;;;;;;5102863;27;43609;-71
2021/12/22 13:17:24;;;;;;;;;;;17.30;41.00;;;;;;5106774;27;43158;-72
2021/12/22 13:19:53;;;;;;;;;;;17.40;41.10;;;;;;5103962;27;42995;-71
2021/12/22 13:22:19;;;;;;;;;;;17.40;41.20;;;;;;5103665;27;44594;-72
2021/12/22 13:24:44;;;;;;;;;;;17.50;41.30;;;;;;5104157;27;42888;-74
2021/12/22 13:27:10;;;;;;;;;;;17.60;41.40;;;;;;5103910;27;43456;-72
2021/12/22 13:29:36;;;;;;;;;;;17.50;41.40;;;;;;5103692;27;42984;-73
2021/12/22 13:32:08;;;;;;;;;;;17.60;41.50;;;;;;5102160;27;45089;-73
2021/12/22 13:34:43;;;;;;;;;;;17.60;41.50;;;;;;5103635;27;43017;-73
2021/12/22 13:37:09;;;;;;;;;;;17.60;41.60;;;;;;5101747;27;42955;-72
2021/12/22 13:39:41;;;;;;;;;;;17.60;41.60;;;;;;5103615;27;43103;-72
2021/12/22 13:42:07;;;;;;;;;;;17.70;41.70;;;;;;5106704;27;43690;-72
2021/12/22 13:44:39;;;;;;;;;;;17.70;41.70;;;;;;5107011;27;42929;-73
2021/12/22 13:47:05;;;;;;;;;;;17.70;41.80;;;;;;5106157;27;42975;-72
2021/12/22 13:49:31;;;;;;;;;;;17.70;41.90;;;;;;5106425;27;42998;-74
2021/12/22 13:51:58;;;;;;;;;;;17.70;41.90;;;;;;5118618;27;43643;-76
2021/12/22 13:54:24;;;;;;;;;;;17.80;41.90;;;;;;5128034;27;42977;-72
2021/12/22 13:56:50;;;;;;;;;;;17.80;42.00;;;;;;5118444;27;43460;-73
2021/12/22 13:59:22;;;;;;;;;;;17.80;42.10;;;;;;5107494;27;42819;-72
2021/12/22 14:01:49;;;;;;;;;;;17.80;42.10;;;;;;5107146;27;42967;-72
2021/12/22 14:04:17;;;;;;;;;;;17.70;42.20;;;;;;5106829;27;42941;-72
2021/12/22 14:06:47;;;;;;;;;;;17.80;42.20;;;;;;5107085;27;43279;-72
2021/12/22 14:09:14;;;;;;;;;;;17.80;42.30;;;;;;5107306;27;42988;-72
2021/12/22 14:11:42;;;;;;;;;;;17.80;42.30;;;;;;5106635;27;42939;-72
2021/12/22 14:14:33;;;;;;;;;;;17.80;42.40;;;;;;5107601;27;43029;-72
2021/12/22 14:17:02;;;;;;;;;;;17.80;42.40;;;;;;5112823;27;43577;-72
2021/12/22 14:19:28;;;;;;;;;;;17.80;42.50;;;;;;5126659;27;43025;-75
2021/12/22 14:22:04;;;;;;;;;;;17.80;42.50;;;;;;5127260;27;42873;-72
2021/12/22 14:24:31;;;;;;;;;;;17.80;42.50;;;;;;5127278;27;43107;-74
2021/12/22 14:26:59;;;;;;;;;;;17.80;42.60;;;;;;5117022;27;42914;-72
2021/12/22 14:29:25;;;;;;;;;;;17.80;42.60;;;;;;5107279;27;42964;-73
2021/12/22 14:31:55;;;;;;;;;;;17.80;42.70;;;;;;5106584;27;43343;-72
2021/12/22 14:34:21;;;;;;;;;;;17.90;42.80;;;;;;5105796;27;42987;-73
2021/12/22 14:36:47;;;;;;;;;;;17.80;42.80;;;;;;5109189;27;42995;-71
2021/12/22 14:39:13;;;;;;;;;;;17.90;42.80;;;;;;5125888;27;43182;-72
2021/12/22 14:41:40;;;;;;;;;;;17.90;42.80;;;;;;5124990;27;43758;-72
2021/12/22 14:44:18;;;;;;;;;;;17.90;43.40;;;;;;5126118;27;42921;-71
2021/12/22 14:46:44;;;;;;;;;;;17.90;42.90;;;;;;5117880;27;43136;-72